• Join FlightAware (Why Join?)
  • Login
  • US Flag 
05:31PM EDT


 

Airport Tracker/Info


-or-


 

Live Flight TrackerFlight Track Log ✈ UAL4305 ✈ 13-May-2013 ✈ KJAX - KIAH

Flight Track Log - Related Links

Times and Time Zones

All times are in EDT time to prevent confusion due to time zone crossing. See the UAL4305 flight status page for this flight to view local times or setup timezone preferences in your user account.

Time Position Orientation Groundspeed Altitude Reporting Facility
EDT Latitude Longitude Course Direction KTS MPH feet Rate Location/Type
06:54AM 30.4969 -81.7136 270° West 154 177 700  Level Jacksonville Center
06:56AM 30.4811 -81.8103 259° West 198 228 3,500 2,040 Climbing Jacksonville Center
06:57AM 30.4833 -81.9804 270° West  Level FlightAware Approximate
06:57AM 30.4608 -81.8853 253° West 221 254 6,100  Level Jacksonville Center
06:58AM 30.4903 -82.0789 277° West  Level FlightAware Approximate
06:58AM 30.4428 -81.9600 254° West 235 270 8,500  Level Jacksonville Center
06:59AM 30.5000 -82.1772 270° West  Level FlightAware Approximate
06:59AM 30.4222 -82.0397 253° West 249 287 10,600  Level Jacksonville Center
07:00AM 30.3958 -82.1292 251° West 274 315 11,600 1,200 Climbing Jacksonville Center
07:01AM 30.3775 -82.2303 258° West 302 348 13,000 1,500 Climbing Jacksonville Center
07:02AM 30.3886 -82.3364 277° West 324 373 14,700 1,620 Climbing Jacksonville Center
07:03AM 30.4014 -82.4397 278° West 330 380 16,300 1,500 Climbing Jacksonville Center
07:04AM 30.4122 -82.5458 277° West 330 380 17,800 1,200 Climbing Jacksonville Center
07:05AM 30.4208 -82.6300 277° West 330 380 18,800 1,200 Climbing Jacksonville Center
07:06AM 30.4336 -82.7506 277° West 324 373 20,300 1,380 Climbing Jacksonville Center
07:07AM 30.4439 -82.8539 277° West 330 380 21,600 1,320 Climbing Jacksonville Center
07:08AM 30.4544 -82.9625 276° West 330 380 23,000 1,380 Climbing Jacksonville Center
07:09AM 30.4669 -83.0564 279° West 330 380 24,400 1,440 Climbing Jacksonville Center
07:10AM 30.4750 -83.1578 275° West 330 380 25,900 1,440 Climbing Jacksonville Center
07:11AM 30.4811 -83.2567 274° West 324 373 27,300 1,260 Climbing Jacksonville Center
07:12AM 30.4892 -83.3553 275° West 319 367 28,500 1,140 Climbing Jacksonville Center
07:13AM 30.4950 -83.4519 274° West 312 359 29,600 960 Climbing Jacksonville Center
07:14AM 30.5028 -83.5458 276° West 312 359 30,500 840 Climbing Jacksonville Center
07:15AM 30.5086 -83.6472 274° West 312 359 31,300 720 Climbing Jacksonville Center
07:16AM 30.5164 -83.7461 275° West 312 359 32,000 300 Climbing Jacksonville Center
07:17AM 30.5197 -83.8522 272° West 317 365 32,000  Level Jacksonville Center
07:18AM 30.5292 -83.9608 276° West 335 386 32,000  Level Jacksonville Center
07:19AM 30.5367 -84.0694 275° West 335 386 32,000  Level Jacksonville Center
07:20AM 30.5375 -84.1903 270° West 340 391 32,000  Level Jacksonville Center
07:21AM 30.5469 -84.3014 276° West 346 398 32,000  Level Jacksonville Center
07:22AM 30.5542 -84.4028 275° West 346 398 32,000  Level Jacksonville Center
07:23AM 30.5589 -84.5233 273° West 346 398 32,000  Level Jacksonville Center
07:24AM 30.5658 -84.6319 274° West 346 398 32,000  Level Jacksonville Center
07:25AM 30.5725 -84.7431 274° West 346 398 32,000  Level Jacksonville Center
07:26AM 30.5792 -84.8519 274° West 346 398 32,000  Level Jacksonville Center
07:27AM 30.5858 -84.9653 274° West 346 398 32,000  Level Jacksonville Center
07:28AM 30.5903 -85.0717 273° West 346 398 32,000  Level Jacksonville Center
07:29AM 30.5967 -85.1828 274° West 346 398 32,000  Level Jacksonville Center
07:30AM 30.5947 -85.2939 269° West 346 398 32,000  Level Jacksonville Center
07:31AM 30.5903 -85.4047 267° West 346 398 32,000  Level Jacksonville Center
07:32AM 30.5861 -85.5108 267° West 346 398 32,000 360 Level Jacksonville Center
07:33AM 30.5839 -85.6192 269° West 346 398 32,800 900 Climbing Jacksonville Center
07:34AM 30.5797 -85.7181 267° West 327 376 33,900 600 Climbing Jacksonville Center
07:35AM 30.5775 -85.8097 268° West 319 367 34,000  Climbing Jacksonville Center
07:36AM 30.5753 -85.9108 269° West 319 367 34,000  Level Jacksonville Center
07:37AM 30.5706 -86.0169 267° West 319 367 34,000  Level Jacksonville Center
07:38AM 30.5658 -86.1228 267° West 329 379 34,000  Level Jacksonville Center
07:39AM 30.5631 -86.2314 268° West 329 379 34,000  Level Jacksonville Center
07:40AM 30.5603 -86.3397 268° West 334 384 34,000  Level Jacksonville Center
07:41AM 30.5572 -86.4506 268° West 340 391 34,000  Level Jacksonville Center
07:42AM 30.5497 -86.5614 266° West 345 397 34,000  Level Jacksonville Center
07:43AM 30.5467 -86.6722 268° West 345 397 34,000  Level Jacksonville Center
07:44AM 30.5411 -86.7828 267° West 345 397 34,000  Level Jacksonville Center
07:45AM 30.5358 -86.8911 267° West 345 397 34,000  Level Jacksonville Center
07:46AM 30.5344 -86.9972 269° West 345 397 34,000  Level Jacksonville Center
07:47AM 30.5261 -87.1689 267° West 339 390 34,000  Level Houston Center
07:48AM 30.5208 -87.2772 267° West 338 389 34,000  Level Houston Center
07:49AM 30.5158 -87.3861 267° West 339 390 34,000  Level Houston Center
07:50AM 30.5108 -87.4944 267° West 338 389 34,000  Level Houston Center
07:51AM 30.5064 -87.6033 267° West 339 390 34,000  Level Houston Center
07:52AM 30.5003 -87.7117 266° West 338 389 34,000  Level Houston Center
07:53AM 30.4944 -87.8192 266° West 335 386 34,000  Level Houston Center
07:54AM 30.4889 -87.9492 267° West 336 387 34,000  Level Houston Center
07:55AM 30.4778 -88.0550 263° West 332 382 34,000  Level Houston Center
07:56AM 30.4542 -88.1597 255° West 333 383 34,000  Level Houston Center
07:58AM 30.4314 -88.2636 256° West 332 382 34,000  Level Houston Center
07:59AM 30.4092 -88.3683 256° West 333 383 34,000  Level Houston Center
08:00AM 30.3861 -88.4736 256° West 336 387 34,000  Level Houston Center
08:01AM 30.3639 -88.5778 256° West 334 384 34,000  Level Houston Center
08:02AM 30.3406 -88.6822 256° West 334 384 34,000  Level Houston Center
08:03AM 30.3172 -88.7867 256° West 335 386 34,000  Level Houston Center
08:04AM 30.2942 -88.8922 256° West 337 388 34,000  Level Houston Center
08:05AM 30.2683 -89.0081 256° West 335 386 34,000  Level Houston Center
08:06AM 30.2447 -89.1128 255° West 337 388 34,000  Level Houston Center
08:07AM 30.2222 -89.2183 256° West 338 389 34,000  Level Houston Center
08:08AM 30.1989 -89.3250 256° West 342 394 34,000  Level Houston Center
08:09AM 30.1750 -89.4311 255° West 341 392 34,000  Level Houston Center
08:10AM 30.1503 -89.5383 255° West 343 395 34,000  Level Houston Center
08:11AM 30.1264 -89.6461 256° West 343 395 34,000  Level Houston Center
08:12AM 30.1008 -89.7536 255° West 344 396 34,000  Level Houston Center
08:13AM 30.0781 -89.8622 256° West 345 397 34,000  Level Houston Center
08:14AM 30.0539 -89.9706 256° West 346 398 34,000  Level Houston Center
08:15AM 30.0228 -90.0992 254° West 344 396 34,000  Level Houston Center
08:16AM 29.9981 -90.2072 255° West 348 400 34,000  Level Houston Center
08:17AM 29.9736 -90.3161 255° West 350 403 34,000  Level Houston Center
08:18AM 29.9472 -90.4244 254° West 350 403 34,000  Level Houston Center
08:19AM 29.9225 -90.5331 255° West 350 403 34,000  Level Houston Center
08:20AM 29.8964 -90.6428 255° West 354 407 34,000  Level Houston Center
08:21AM 29.8694 -90.7522 254° West 356 410 34,000  Level Houston Center
08:22AM 29.8450 -90.8622 256° West 354 407 34,000  Level Houston Center
08:23AM 29.8192 -90.9708 255° West 353 406 34,000  Level Houston Center
08:24AM 29.7875 -91.1025 255° West 355 409 34,000  Level Houston Center
08:25AM 29.7619 -91.2111 255° West 354 407 34,000  Level Houston Center
08:26AM 29.7361 -91.3214 255° West 357 411 34,000  Level Houston Center
08:27AM 29.7094 -91.4306 254° West 355 409 34,000  Level Houston Center
08:28AM 29.6822 -91.5400 254° West 356 410 34,000  Level Houston Center
08:29AM 29.6558 -91.6494 255° West 355 409 34,000  Level Houston Center
08:30AM 29.6272 -91.7678 254° West 359 413 34,000  Level Houston Center
08:31AM 29.6006 -91.8775 254° West 358 412 34,000  Level Houston Center
08:32AM 29.5719 -91.9878 253° West 359 413 34,000  Level Houston Center
08:33AM 29.5464 -92.0969 255° West 357 411 34,000  Level Houston Center
08:34AM 29.5200 -92.2056 254° West 354 407 34,000 -60 Level Houston Center
08:35AM 29.4922 -92.3144 254° West 355 409 33,900  Descending Houston Center
08:36AM 29.4633 -92.4311 254° West 327 376 34,000  Climbing Houston Center
08:37AM 29.4600 -92.5294 268° West 322 371 34,000  Level Houston Center
08:38AM 29.4642 -92.6328 273° West 320 368 34,000  Level Houston Center
08:39AM 29.4706 -92.7403 274° West 336 387 34,000 -240 Level Houston Center
08:40AM 29.4739 -92.8522 272° West 349 402 33,600 -780 Descending Houston Center
08:41AM 29.4797 -92.9692 273° West 363 418 32,500 -1,260 Descending Houston Center
08:43AM 29.4850 -93.0892 273° West 372 428 31,100 -1,500 Descending Houston Center
08:44AM 29.4897 -93.2086 273° West 375 432 29,400 -2,400 Descending Houston Center
08:45AM 29.4967 -93.3486 273° West 366 421 26,300 -2,460 Descending Houston Center
08:46AM 29.5006 -93.4628 272° West 360 414 24,400 -1,740 Descending Houston Center
08:47AM 29.5047 -93.5781 272° West 360 414 22,800 -1,620 Descending Houston Center
08:48AM 29.5097 -93.6931 273° West 361 415 21,200 -1,620 Descending Houston Center
08:49AM 29.5136 -93.8083 272° West 362 417 19,600 -1,740 Descending Houston Center
08:50AM 29.5189 -93.9278 273° West 370 426 17,700 -1,800 Descending Houston Center
08:51AM 29.5228 -94.0444 272° West 368 423 16,000 -1,920 Descending Houston Center
08:51AM 29.5253 -94.1083 273° West 364 419 15,000 -1,980 Descending Houston Center
08:52AM 29.5264 -94.1597 271° West 362 417 14,000 -1,920 Descending Houston Center
08:52AM 29.5286 -94.2256 272° West 355 409 13,100 -1,020 Descending Houston Center
08:53AM 29.5306 -94.2725 273° West 352 405 13,000 -420 Descending Houston Center
08:53AM 29.5328 -94.3308 273° West 334 384 12,700 -900 Descending Houston Center
08:54AM 29.5525 -94.3892 291° West 313 360 12,100 -1,020 Descending Houston Center
08:54AM 29.5675 -94.4250 296° West 290 334 11,700 -1,080 Descending Houston Center
08:55AM 29.5872 -94.4706 296° West 292 336 11,000 -1,200 Descending Houston Center
08:55AM 29.6031 -94.5092 295° West 288 331 10,500 -1,200 Descending Houston Center
08:56AM 29.6325 -94.5433 315° West 282 325 9,800 -1,380 Descending Houston Center
08:56AM 29.6578 -94.5744 313° West 280 322 9,100 -1,380 Descending Houston Center
08:57AM 29.6894 -94.6058 319° Northwest 283 326 8,400 -1,320 Descending Houston Center
08:57AM 29.7186 -94.6364 318° Northwest 281 323 7,800 -1,080 Descending Houston Center
08:58AM 29.7461 -94.6661 317° Northwest 280 322 7,300 -900 Descending Houston Center
08:58AM 29.7747 -94.6967 317° Northwest 280 322 6,900 -720 Descending Houston Center
08:59AM 29.8028 -94.7269 317° Northwest 279 321 6,600 -540 Descending Houston Center
08:59AM 29.8275 -94.7647 307° West 285 328 6,400 -720 Descending Houston Center
09:00AM 29.8600 -94.8131 308° West 283 326 5,900 -720 Descending Houston Center
09:00AM 29.8747 -94.8408 301° West 279 321 5,700 -540 Descending Houston Center
09:01AM 29.8936 -94.8914 293° West 275 316 5,400 -540 Descending Houston Center
09:01AM 29.9064 -94.9308 290° West 274 315 5,100 -780 Descending Houston Center
09:02AM 29.9217 -94.9725 293° West 273 314 4,600 -1,140 Descending Houston Center
09:02AM 29.9375 -95.0136 294° West 273 314 4,000 -1,200 Descending Houston Center
09:03AM 29.9511 -95.0528 292° West 275 316 3,400 -1,140 Descending Houston Center
09:03AM 29.9633 -95.0900 291° West 272 313 3,000 -1,020 Descending Houston Center
09:04AM 29.9764 -95.1303 291° West 266 306 2,400 -840 Descending Houston Center
09:04AM 29.9767 -95.1633 271° West 205 236 2,200 -660 Descending Houston Center